createdAt,value
2019-05-21T00:00:11.696Z,24.80
2019-05-21T00:02:37.843Z,25.65
2019-05-21T00:05:06.073Z,19.98
2019-05-21T00:07:32.226Z,23.57
2019-05-21T00:09:58.450Z,28.17
2019-05-21T00:12:24.596Z,23.60
2019-05-21T00:14:50.769Z,23.10
2019-05-21T00:17:16.980Z,15.20
2019-05-21T00:19:43.089Z,19.70
2019-05-21T00:22:09.312Z,20.32
2019-05-21T00:24:35.590Z,17.75
2019-05-21T00:27:01.803Z,16.35
2019-05-21T00:30:05.695Z,16.20
2019-05-21T00:33:09.535Z,9.83
2019-05-21T00:36:14.087Z,10.68
2019-05-21T00:39:17.612Z,13.30
2019-05-21T00:41:59.125Z,10.32
2019-05-21T00:44:26.281Z,10.88
2019-05-21T00:46:52.480Z,8.55
2019-05-21T00:49:18.700Z,10.43
2019-05-21T00:51:44.856Z,11.33
2019-05-21T00:54:10.967Z,11.25
2019-05-21T00:56:37.093Z,10.78
2019-05-21T00:59:03.352Z,9.65
2019-05-21T01:01:29.461Z,11.50
2019-05-21T01:03:55.571Z,14.43
2019-05-21T01:06:21.696Z,16.37
2019-05-21T01:08:47.816Z,18.07
2019-05-21T01:11:13.959Z,14.28
2019-05-21T01:13:40.300Z,16.40
2019-05-21T01:16:06.561Z,19.80
2019-05-21T01:18:32.760Z,21.97
2019-05-21T01:20:58.918Z,16.20
2019-05-21T01:23:25.106Z,15.98
2019-05-21T01:25:51.334Z,18.95
2019-05-21T01:28:17.478Z,20.48
2019-05-21T01:30:43.985Z,18.98
2019-05-21T01:33:10.532Z,23.40
2019-05-21T01:35:36.739Z,20.52
2019-05-21T01:38:03.000Z,19.92
2019-05-21T01:40:29.120Z,29.92
2019-05-21T01:42:55.336Z,29.55
2019-05-21T01:45:21.450Z,27.60
2019-05-21T01:47:47.694Z,24.40
2019-05-21T01:50:13.808Z,24.23
2019-05-21T01:52:39.934Z,25.43
2019-05-21T01:55:06.446Z,19.70
2019-05-21T01:57:32.658Z,19.65
2019-05-21T01:59:59.142Z,25.97
2019-05-21T02:02:25.313Z,28.75
2019-05-21T02:04:51.663Z,23.45
2019-05-21T02:07:17.867Z,27.80
2019-05-21T02:09:59.284Z,23.38
2019-05-21T02:12:25.992Z,24.85
2019-05-21T02:14:52.177Z,24.12
2019-05-21T02:17:18.390Z,24.52
2019-05-21T02:19:44.612Z,25.95
2019-05-21T02:22:10.714Z,18.02
2019-05-21T02:24:36.867Z,21.10
2019-05-21T02:27:03.085Z,25.55
2019-05-21T02:29:29.216Z,22.40
2019-05-21T02:31:55.339Z,21.17
2019-05-21T02:34:21.576Z,22.17
2019-05-21T02:36:47.783Z,29.50
2019-05-21T02:39:13.922Z,21.05
2019-05-21T02:41:40.143Z,23.70
2019-05-21T02:44:06.387Z,19.98
2019-05-21T02:46:32.611Z,25.75
2019-05-21T02:48:58.816Z,30.25
2019-05-21T02:51:25.098Z,24.57
2019-05-21T02:53:51.276Z,23.00
2019-05-21T02:56:17.546Z,28.42
2019-05-21T02:58:43.857Z,28.57
2019-05-21T03:01:28.794Z,20.00
2019-05-21T03:03:55.013Z,28.35
2019-05-21T03:06:21.235Z,22.73
2019-05-21T03:08:47.558Z,27.77
2019-05-21T03:11:14.076Z,20.40
2019-05-21T03:13:40.430Z,25.27
2019-05-21T03:16:06.649Z,23.62
2019-05-21T03:18:33.322Z,24.70
2019-05-21T03:20:59.517Z,23.80
2019-05-21T03:23:26.042Z,21.10
2019-05-21T03:25:52.295Z,18.37
2019-05-21T03:28:18.621Z,21.02
2019-05-21T03:30:44.879Z,20.82
2019-05-21T03:33:11.153Z,20.82
2019-05-21T03:35:37.348Z,19.65
2019-05-21T03:38:03.649Z,20.02
2019-05-21T03:40:29.788Z,18.75
2019-05-21T03:42:56.260Z,20.05
2019-05-21T03:45:22.458Z,14.87
2019-05-21T03:47:48.588Z,18.50
2019-05-21T03:50:14.991Z,15.00
2019-05-21T03:52:41.121Z,17.60
2019-05-21T03:55:07.656Z,17.10
2019-05-21T03:57:33.962Z,15.20
2019-05-21T04:00:00.486Z,15.90
2019-05-21T04:02:26.866Z,15.05
2019-05-21T04:04:53.137Z,11.20
2019-05-21T04:07:19.298Z,14.18
2019-05-21T04:09:45.439Z,14.10
2019-05-21T04:12:12.744Z,18.27
2019-05-21T04:14:41.033Z,15.38
2019-05-21T04:17:27.302Z,12.95
2019-05-21T04:19:53.427Z,14.07
2019-05-21T04:22:19.753Z,17.20
2019-05-21T04:24:45.977Z,16.77
2019-05-21T04:27:13.194Z,14.83
2019-05-21T04:29:39.549Z,13.88
2019-05-21T04:32:05.687Z,21.60
2019-05-21T04:34:31.923Z,18.75
2019-05-21T04:37:09.947Z,19.85
2019-05-21T04:39:27.014Z,23.60
2019-05-21T04:41:53.464Z,19.45
2019-05-21T04:44:19.698Z,17.60
2019-05-21T04:46:46.620Z,19.07
2019-05-21T04:49:12.861Z,17.23
2019-05-21T04:51:39.094Z,16.82
2019-05-21T04:54:05.211Z,15.08
2019-05-21T04:56:31.504Z,15.13
2019-05-21T04:58:57.812Z,20.43
2019-05-21T05:01:24.088Z,13.78
2019-05-21T05:03:50.303Z,19.05
2019-05-21T05:06:16.435Z,13.55
2019-05-21T05:08:42.656Z,15.80
2019-05-21T05:11:08.995Z,19.25
2019-05-21T05:13:35.149Z,17.02
2019-05-21T05:16:04.280Z,14.73
2019-05-21T05:18:30.921Z,17.20
2019-05-21T05:20:57.091Z,14.83
2019-05-21T05:23:23.237Z,15.28
2019-05-21T05:25:49.447Z,13.60
2019-05-21T05:28:15.576Z,15.55
2019-05-21T05:30:41.805Z,15.03
2019-05-21T05:33:07.955Z,12.70
2019-05-21T05:35:34.310Z,16.20
2019-05-21T05:38:00.553Z,10.15
2019-05-21T05:40:27.188Z,14.35
2019-05-21T05:42:53.441Z,13.05
2019-05-21T05:45:19.821Z,8.03
2019-05-21T05:47:45.987Z,12.20
2019-05-21T05:50:14.620Z,11.80
2019-05-21T05:52:40.795Z,10.90
2019-05-21T05:55:07.201Z,12.37
2019-05-21T05:57:33.409Z,10.58
2019-05-21T05:59:59.508Z,10.40
2019-05-21T06:02:25.636Z,10.30
2019-05-21T06:04:51.750Z,11.05
2019-05-21T06:07:17.860Z,10.05
2019-05-21T06:09:43.999Z,9.68
2019-05-21T06:12:10.324Z,11.78
2019-05-21T06:14:36.540Z,10.43
2019-05-21T06:17:02.925Z,10.70
2019-05-21T06:19:29.090Z,10.53
2019-05-21T06:21:55.198Z,14.68
2019-05-21T06:24:21.311Z,12.05
2019-05-21T06:26:47.415Z,11.22
2019-05-21T06:29:13.598Z,11.12
2019-05-21T06:31:39.731Z,5.58
2019-05-21T06:34:05.808Z,9.63
2019-05-21T06:36:31.924Z,10.28
2019-05-21T06:38:58.030Z,10.15
2019-05-21T06:41:24.245Z,10.00
2019-05-21T06:43:50.426Z,11.05
2019-05-21T06:46:16.540Z,9.00
2019-05-21T06:48:42.942Z,12.37
2019-05-21T06:51:09.088Z,12.10
2019-05-21T06:53:35.173Z,9.63
2019-05-21T06:56:01.688Z,11.38
2019-05-21T06:58:27.804Z,10.50
2019-05-21T07:00:53.904Z,9.30
2019-05-21T07:03:20.018Z,10.13
2019-05-21T07:05:58.449Z,9.80
2019-05-21T07:08:14.221Z,9.03
2019-05-21T07:10:40.324Z,10.48
2019-05-21T07:13:06.412Z,9.23
2019-05-21T07:15:32.753Z,10.48
2019-05-21T07:17:58.962Z,10.38
2019-05-21T07:20:25.357Z,14.53
2019-05-21T07:22:51.545Z,13.25
2019-05-21T07:25:17.863Z,13.95
2019-05-21T07:27:44.060Z,13.13
2019-05-21T07:30:12.151Z,13.40
2019-05-21T07:32:38.361Z,11.85
2019-05-21T07:35:04.676Z,9.50
2019-05-21T07:37:30.874Z,12.33
2019-05-21T07:39:56.953Z,15.35
2019-05-21T07:42:23.059Z,14.47
2019-05-21T07:44:49.159Z,17.10
2019-05-21T07:47:15.301Z,15.90
2019-05-21T07:49:41.522Z,12.78
2019-05-21T07:52:07.817Z,16.82
2019-05-21T07:54:33.907Z,16.15
2019-05-21T07:57:00.134Z,12.53
2019-05-21T07:59:26.252Z,17.77
2019-05-21T08:01:54.355Z,19.07
2019-05-21T08:04:20.583Z,15.00
2019-05-21T08:06:46.713Z,18.00
2019-05-21T08:09:14.689Z,18.75
2019-05-21T08:11:41.014Z,18.23
2019-05-21T08:14:07.126Z,16.27
2019-05-21T08:16:33.305Z,14.07
2019-05-21T08:18:59.521Z,11.45
2019-05-21T08:21:25.612Z,14.87
2019-05-21T08:23:51.805Z,13.35
2019-05-21T08:26:17.927Z,16.15
2019-05-21T08:28:44.388Z,13.93
2019-05-21T08:31:10.593Z,13.38
2019-05-21T08:33:36.699Z,16.48
2019-05-21T08:36:02.984Z,14.20
2019-05-21T08:38:29.278Z,14.78
2019-05-21T08:40:55.543Z,18.37
2019-05-21T08:43:22.323Z,19.40
2019-05-21T08:45:48.579Z,19.57
2019-05-21T08:48:14.831Z,16.40
2019-05-21T08:50:41.072Z,14.03
2019-05-21T08:53:07.202Z,16.32
2019-05-21T08:55:33.500Z,10.98
2019-05-21T08:58:07.133Z,11.48
2019-05-21T09:00:27.898Z,14.78
2019-05-21T09:02:54.085Z,13.75
2019-05-21T09:05:20.211Z,13.60
2019-05-21T09:07:52.308Z,15.40
2019-05-21T09:10:15.083Z,15.38
2019-05-21T09:12:41.249Z,14.38
2019-05-21T09:15:08.363Z,12.60
2019-05-21T09:17:34.557Z,9.65
2019-05-21T09:20:00.659Z,8.20
2019-05-21T09:22:26.765Z,12.80
2019-05-21T09:24:52.856Z,10.90
2019-05-21T09:27:19.176Z,10.70
2019-05-21T09:29:45.468Z,7.83
2019-05-21T09:32:31.694Z,10.05
2019-05-21T09:34:57.879Z,9.95
2019-05-21T09:37:24.008Z,12.00
2019-05-21T09:39:50.181Z,14.68
2019-05-21T09:42:16.368Z,14.40
2019-05-21T09:44:42.489Z,14.70
2019-05-21T09:47:08.668Z,14.10
2019-05-21T09:49:34.891Z,13.83
2019-05-21T09:52:04.166Z,11.00
2019-05-21T09:54:30.375Z,11.33
2019-05-21T09:56:56.529Z,8.00
2019-05-21T09:59:27.187Z,8.33
2019-05-21T10:02:13.449Z,15.00
2019-05-21T10:04:39.649Z,12.60
2019-05-21T10:07:05.751Z,10.25
2019-05-21T10:09:32.037Z,10.40
2019-05-21T10:11:58.227Z,10.50
2019-05-21T10:14:24.434Z,9.58
2019-05-21T10:16:50.614Z,8.93
2019-05-21T10:19:16.840Z,9.15
2019-05-21T10:21:43.024Z,7.58
2019-05-21T10:24:09.228Z,10.58
2019-05-21T10:26:35.417Z,10.10
2019-05-21T10:29:01.818Z,15.32
2019-05-21T10:31:28.012Z,12.45
2019-05-21T10:33:57.208Z,9.15
2019-05-21T10:36:23.595Z,11.65
2019-05-21T10:38:49.918Z,12.30
2019-05-21T10:41:16.114Z,9.63
2019-05-21T10:43:43.443Z,7.87
2019-05-21T10:46:09.703Z,8.28
2019-05-21T10:48:35.794Z,5.87
2019-05-21T10:51:04.519Z,8.90
2019-05-21T10:53:30.712Z,13.48
2019-05-21T10:55:57.006Z,9.08
2019-05-21T10:58:23.075Z,9.88
2019-05-21T11:00:51.202Z,9.70
2019-05-21T11:03:21.949Z,8.25
2019-05-21T11:05:50.119Z,8.13
2019-05-21T11:08:25.089Z,5.65
2019-05-21T11:10:44.298Z,7.75
2019-05-21T11:13:10.442Z,8.48
2019-05-21T11:15:36.847Z,8.03
2019-05-21T11:18:11.813Z,9.33
2019-05-21T11:20:31.516Z,9.93
2019-05-21T11:22:58.448Z,11.53
2019-05-21T11:25:24.829Z,8.75
2019-05-21T11:27:51.220Z,11.00
2019-05-21T11:30:37.267Z,9.90
2019-05-21T11:33:03.456Z,8.88
2019-05-21T11:35:29.762Z,10.53
2019-05-21T11:37:55.950Z,10.35
2019-05-21T11:40:25.988Z,8.15
2019-05-21T11:42:53.190Z,9.53
2019-05-21T11:45:31.570Z,11.48
2019-05-21T11:47:47.981Z,10.18
2019-05-21T11:50:16.105Z,11.30
2019-05-21T11:52:42.313Z,10.28
2019-05-21T11:55:08.921Z,9.88
2019-05-21T11:57:35.094Z,9.40
2019-05-21T12:00:01.777Z,8.38
2019-05-21T12:02:27.942Z,8.93
2019-05-21T12:04:54.044Z,11.10
2019-05-21T12:07:20.255Z,10.13
2019-05-21T12:09:46.378Z,10.35
2019-05-21T12:12:12.554Z,9.15
2019-05-21T12:14:38.681Z,9.50
2019-05-21T12:17:04.768Z,11.95
2019-05-21T12:19:30.901Z,11.83
2019-05-21T12:21:57.004Z,12.00
2019-05-21T12:24:23.116Z,8.70
2019-05-21T12:26:49.328Z,8.63
2019-05-21T12:29:15.456Z,11.38
2019-05-21T12:31:41.732Z,8.13
2019-05-21T12:34:08.032Z,6.85
2019-05-21T12:36:34.383Z,8.05
2019-05-21T12:39:13.692Z,8.50
2019-05-21T12:41:28.605Z,6.83
2019-05-21T12:43:54.903Z,6.35
2019-05-21T12:46:21.025Z,5.42
2019-05-21T12:48:47.254Z,6.20
2019-05-21T12:51:13.484Z,6.22
2019-05-21T12:53:42.098Z,6.35
2019-05-21T12:56:08.370Z,7.00
2019-05-21T12:58:34.492Z,7.20
2019-05-21T13:01:00.779Z,6.95
2019-05-21T13:03:26.954Z,8.15
2019-05-21T13:05:53.183Z,7.20
2019-05-21T13:08:19.266Z,7.37
2019-05-21T13:10:45.505Z,5.78
2019-05-21T13:13:11.635Z,7.12
2019-05-21T13:15:37.765Z,7.20
2019-05-21T13:18:04.265Z,8.18
2019-05-21T13:20:31.647Z,7.55
2019-05-21T13:22:57.759Z,6.92
2019-05-21T13:25:24.344Z,6.80
2019-05-21T13:27:50.564Z,6.70
2019-05-21T13:30:17.379Z,9.65
2019-05-21T13:32:44.025Z,7.03
2019-05-21T13:35:10.688Z,8.50
2019-05-21T13:37:36.917Z,5.42
2019-05-21T13:40:08.402Z,5.62
2019-05-21T13:42:34.529Z,7.37
2019-05-21T13:45:04.358Z,6.75
2019-05-21T13:47:30.648Z,8.80
2019-05-21T13:49:56.853Z,5.30
2019-05-21T13:52:23.204Z,7.90
2019-05-21T13:54:49.379Z,6.47
2019-05-21T13:57:15.656Z,7.03
2019-05-21T13:59:42.053Z,6.33
2019-05-21T14:02:10.419Z,5.97
2019-05-21T14:04:36.942Z,5.85
2019-05-21T14:07:03.031Z,7.80
2019-05-21T14:09:29.169Z,7.22
2019-05-21T14:11:55.334Z,6.10
2019-05-21T14:14:21.645Z,7.03
2019-05-21T14:16:47.725Z,6.70
2019-05-21T14:19:14.110Z,7.12
2019-05-21T14:21:40.271Z,6.03
2019-05-21T14:24:06.591Z,8.05
2019-05-21T14:26:32.898Z,7.87
2019-05-21T14:28:59.056Z,5.50
2019-05-21T14:31:25.232Z,7.35
2019-05-21T14:33:51.339Z,7.35
2019-05-21T14:36:17.412Z,8.75
2019-05-21T14:38:43.524Z,7.95
2019-05-21T14:41:09.736Z,6.78
2019-05-21T14:43:35.957Z,7.15
2019-05-21T14:46:03.244Z,7.00
2019-05-21T14:48:29.444Z,9.58
2019-05-21T14:50:55.593Z,8.25
2019-05-21T14:53:21.781Z,8.40
2019-05-21T14:55:47.993Z,8.88
2019-05-21T14:58:14.174Z,8.33
2019-05-21T15:00:40.465Z,8.00
2019-05-21T15:03:06.540Z,9.28
2019-05-21T15:05:33.988Z,8.85
2019-05-21T15:08:00.176Z,9.15
2019-05-21T15:10:26.502Z,8.10
2019-05-21T15:12:52.703Z,8.78
2019-05-21T15:15:18.837Z,9.40
2019-05-21T15:17:45.027Z,9.95
2019-05-21T15:20:31.092Z,7.92
2019-05-21T15:22:57.306Z,8.28
2019-05-21T15:25:23.516Z,7.65
2019-05-21T15:27:49.744Z,7.70
2019-05-21T15:30:16.265Z,7.78
2019-05-21T15:32:42.367Z,8.35
2019-05-21T15:35:08.688Z,7.33
2019-05-21T15:37:34.910Z,9.60
2019-05-21T15:40:01.392Z,8.93
2019-05-21T15:42:27.589Z,8.70
2019-05-21T15:44:53.793Z,7.67
2019-05-21T15:47:19.896Z,10.32
2019-05-21T15:49:46.591Z,9.50
2019-05-21T15:52:12.866Z,8.15
2019-05-21T15:54:39.056Z,7.30
2019-05-21T15:57:05.176Z,7.87
2019-05-21T15:59:31.575Z,9.35
2019-05-21T16:01:57.738Z,8.75
2019-05-21T16:04:23.838Z,9.05
2019-05-21T16:06:50.041Z,8.13
2019-05-21T16:09:16.272Z,9.78
2019-05-21T16:11:42.448Z,7.95
2019-05-21T16:14:08.647Z,8.13
2019-05-21T16:16:34.982Z,10.50
2019-05-21T16:19:01.073Z,11.10
2019-05-21T16:21:27.279Z,10.23
2019-05-21T16:23:53.352Z,10.63
2019-05-21T16:26:23.525Z,11.50
2019-05-21T16:28:50.395Z,8.58
2019-05-21T16:31:16.656Z,8.73
2019-05-21T16:33:42.806Z,9.53
2019-05-21T16:36:08.973Z,9.25
2019-05-21T16:38:35.091Z,10.93
2019-05-21T16:41:01.168Z,7.95
2019-05-21T16:43:27.358Z,10.05
2019-05-21T16:45:53.459Z,10.23
2019-05-21T16:48:19.673Z,8.58
2019-05-21T16:50:45.755Z,8.53
2019-05-21T16:53:11.859Z,8.35
2019-05-21T16:55:37.961Z,9.30
2019-05-21T16:58:04.180Z,10.45
2019-05-21T17:00:31.157Z,8.28
2019-05-21T17:02:57.317Z,11.57
2019-05-21T17:05:23.519Z,10.60
2019-05-21T17:07:49.657Z,10.03
2019-05-21T17:10:17.870Z,11.00
2019-05-21T17:12:45.406Z,13.35
2019-05-21T17:15:12.134Z,8.68
2019-05-21T17:17:38.382Z,8.68
2019-05-21T17:20:06.792Z,10.18
2019-05-21T17:22:33.120Z,10.40
2019-05-21T17:24:59.333Z,9.75
2019-05-21T17:27:25.673Z,6.53
2019-05-21T17:29:51.788Z,8.00
2019-05-21T17:32:17.977Z,10.03
2019-05-21T17:34:44.119Z,9.43
2019-05-21T17:37:10.259Z,10.23
2019-05-21T17:39:36.438Z,10.05
2019-05-21T17:42:14.650Z,9.48
2019-05-21T17:44:30.778Z,9.50
2019-05-21T17:46:57.048Z,10.50
2019-05-21T17:49:23.710Z,10.38
2019-05-21T17:51:49.961Z,8.70
2019-05-21T17:54:16.047Z,8.63
2019-05-21T17:56:42.269Z,10.20
2019-05-21T17:59:08.473Z,9.68
2019-05-21T18:01:35.441Z,9.90
2019-05-21T18:04:03.824Z,10.43
2019-05-21T18:06:30.531Z,9.53
2019-05-21T18:08:57.044Z,9.95
2019-05-21T18:11:23.424Z,10.40
2019-05-21T18:13:49.919Z,11.78
2019-05-21T18:16:16.115Z,9.90
2019-05-21T18:18:43.517Z,11.20
2019-05-21T18:21:10.417Z,11.38
2019-05-21T18:23:37.038Z,10.95
2019-05-21T18:26:03.969Z,10.95
2019-05-21T18:28:30.438Z,11.83
2019-05-21T18:30:57.467Z,13.20
2019-05-21T18:33:23.742Z,10.93
2019-05-21T18:35:49.981Z,12.50
2019-05-21T18:38:16.439Z,13.60
2019-05-21T18:40:43.239Z,12.37
2019-05-21T18:43:09.524Z,9.30
2019-05-21T18:45:36.084Z,10.43
2019-05-21T18:48:02.281Z,10.45
2019-05-21T18:50:36.343Z,11.85
2019-05-21T18:52:57.647Z,9.58
2019-05-21T18:55:24.028Z,9.85
2019-05-21T18:57:50.245Z,9.83
2019-05-21T19:00:17.442Z,13.90
2019-05-21T19:02:44.066Z,15.32
2019-05-21T19:05:11.006Z,12.15
2019-05-21T19:07:37.922Z,12.07
2019-05-21T19:10:07.580Z,11.08
2019-05-21T19:12:38.233Z,9.83
2019-05-21T19:15:04.020Z,13.38
2019-05-21T19:17:35.722Z,11.83
2019-05-21T19:19:58.725Z,11.12
2019-05-21T19:22:27.529Z,12.05
2019-05-21T19:24:52.888Z,12.23
2019-05-21T19:27:19.084Z,10.50
2019-05-21T19:29:45.221Z,8.68
2019-05-21T19:32:11.443Z,11.83
2019-05-21T19:34:37.701Z,12.10
2019-05-21T19:37:04.040Z,13.80
2019-05-21T19:39:32.934Z,12.45
2019-05-21T19:41:59.120Z,14.55
2019-05-21T19:44:25.244Z,12.40
2019-05-21T19:46:51.713Z,12.60
2019-05-21T19:49:18.201Z,13.20
2019-05-21T19:51:44.386Z,15.43
2019-05-21T19:54:10.592Z,12.33
2019-05-21T19:56:36.987Z,11.03
2019-05-21T19:59:03.772Z,14.50
2019-05-21T20:01:29.921Z,16.60
2019-05-21T20:03:56.770Z,15.43
2019-05-21T20:06:23.667Z,16.07
2019-05-21T20:08:49.942Z,15.53
2019-05-21T20:11:16.883Z,11.55
2019-05-21T20:13:43.166Z,13.15
2019-05-21T20:16:10.264Z,16.37
2019-05-21T20:18:36.738Z,15.95
2019-05-21T20:21:03.944Z,15.15
2019-05-21T20:23:30.156Z,19.17
2019-05-21T20:25:57.112Z,24.37
2019-05-21T20:28:23.928Z,19.73
2019-05-21T20:30:50.348Z,19.98
2019-05-21T20:33:16.728Z,18.82
2019-05-21T20:35:44.008Z,16.73
2019-05-21T20:38:12.909Z,14.20
2019-05-21T20:40:39.528Z,12.35
2019-05-21T20:43:06.063Z,8.80
2019-05-21T20:45:34.089Z,9.55
2019-05-21T20:48:00.367Z,11.22
2019-05-21T20:50:26.891Z,11.05
2019-05-21T20:52:53.320Z,10.58
2019-05-21T20:55:19.929Z,9.90
2019-05-21T20:57:46.336Z,8.73
2019-05-21T21:00:15.352Z,8.68
2019-05-21T21:02:42.035Z,6.53
2019-05-21T21:05:09.458Z,6.72
2019-05-21T21:07:37.656Z,6.53
2019-05-21T21:10:08.212Z,7.60
2019-05-21T21:12:34.917Z,8.13
2019-05-21T21:15:01.731Z,10.13
2019-05-21T21:17:28.493Z,12.18
2019-05-21T21:19:54.998Z,12.15
2019-05-21T21:22:21.301Z,11.53
2019-05-21T21:24:47.627Z,9.10
2019-05-21T21:27:14.499Z,14.30
2019-05-21T21:29:40.823Z,12.78
2019-05-21T21:32:07.129Z,9.60
2019-05-21T21:34:33.811Z,13.68
2019-05-21T21:37:00.923Z,11.30
2019-05-21T21:39:27.119Z,8.75
2019-05-21T21:41:53.863Z,7.92
2019-05-21T21:44:33.443Z,11.80
2019-05-21T21:46:49.259Z,10.72
2019-05-21T21:49:17.289Z,10.70
2019-05-21T21:51:43.585Z,14.53
2019-05-21T21:54:10.789Z,17.02
2019-05-21T21:56:38.481Z,16.45
2019-05-21T21:59:04.712Z,9.85
2019-05-21T22:01:44.017Z,9.05
2019-05-21T22:04:12.103Z,17.02
2019-05-21T22:06:40.431Z,12.28
2019-05-21T22:09:10.292Z,10.65
2019-05-21T22:11:36.525Z,10.43
2019-05-21T22:14:05.280Z,8.28
2019-05-21T22:16:32.470Z,6.70
2019-05-21T22:18:58.800Z,8.58
2019-05-21T22:21:25.293Z,8.68
2019-05-21T22:23:52.177Z,8.93
2019-05-21T22:26:18.307Z,9.35
2019-05-21T22:28:44.710Z,9.70
2019-05-21T22:31:10.946Z,8.08
2019-05-21T22:33:37.488Z,6.08
2019-05-21T22:36:04.228Z,5.65
2019-05-21T22:38:32.334Z,8.35
2019-05-21T22:40:58.591Z,6.83
2019-05-21T22:43:25.683Z,7.58
2019-05-21T22:45:51.899Z,8.98
2019-05-21T22:48:18.084Z,8.15
2019-05-21T22:50:44.450Z,8.50
2019-05-21T22:53:10.646Z,5.95
2019-05-21T22:55:36.771Z,6.95
2019-05-21T22:58:03.356Z,8.15
2019-05-21T23:00:31.463Z,6.05
2019-05-21T23:02:57.854Z,6.53
2019-05-21T23:05:24.172Z,7.65
2019-05-21T23:07:50.303Z,8.88
2019-05-21T23:10:17.097Z,11.10
2019-05-21T23:12:43.226Z,12.10
2019-05-21T23:15:23.621Z,9.70
2019-05-21T23:17:38.582Z,10.05
2019-05-21T23:20:07.490Z,11.10
2019-05-21T23:22:35.175Z,10.70
2019-05-21T23:25:04.825Z,11.08
2019-05-21T23:27:31.428Z,12.20
2019-05-21T23:29:57.545Z,8.75
2019-05-21T23:32:24.248Z,14.23
2019-05-21T23:34:53.047Z,9.23
2019-05-21T23:37:23.629Z,9.08
2019-05-21T23:39:51.641Z,9.20
2019-05-21T23:42:28.953Z,9.30
2019-05-21T23:44:47.336Z,7.33
2019-05-21T23:47:15.433Z,8.43
2019-05-21T23:49:42.127Z,6.62
2019-05-21T23:52:08.350Z,8.35
2019-05-21T23:54:34.466Z,8.03
2019-05-21T23:57:03.166Z,8.30
2019-05-21T23:59:29.963Z,9.58
